Time;durP1;ratioP1;P1;durP2;ratioP2;P2;SDS_P1;SDS_P2;PMS_P1;PMS_P2;Temp;Humidity;BMP_temperature;BMP_pressure;BME280_temperature;BME280_humidity;BME280_pressure;Samples;Min_cycle;Max_cycle;Signal;HPM_P1;HPM_P2
2022/03/18 04:01:06;;;;;;;5.22;4.72;;;18.20;50.00;;;;;;5648464;23;46294;-59
2022/03/18 04:03:32;;;;;;;5.80;5.00;;;18.10;50.00;;;;;;4963501;28;45440;-58
2022/03/18 04:05:58;;;;;;;5.13;4.55;;;18.10;50.00;;;;;;4966090;28;45591;-60
2022/03/18 04:08:23;;;;;;;5.60;5.03;;;18.20;50.00;;;;;;4971755;28;45118;-59
2022/03/18 04:10:49;;;;;;;5.60;4.70;;;18.20;50.00;;;;;;4965558;28;45454;-58
2022/03/18 04:13:14;;;;;;;5.22;4.45;;;18.10;50.00;;;;;;4955057;28;45369;-59
2022/03/18 04:15:40;;;;;;;5.10;4.60;;;18.20;50.00;;;;;;4947644;28;46044;-59
2022/03/18 04:18:06;;;;;;;5.43;4.90;;;18.10;50.00;;;;;;4936235;28;45234;-59
2022/03/18 04:20:33;;;;;;;5.80;4.95;;;18.20;50.10;;;;;;4939861;28;45306;-57
2022/03/18 04:22:59;;;;;;;4.97;4.45;;;18.20;50.10;;;;;;4960503;28;45406;-56
2022/03/18 04:25:24;;;;;;;5.30;4.55;;;18.10;50.00;;;;;;4949429;28;46482;-59
2022/03/18 04:27:50;;;;;;;6.18;4.78;;;18.10;50.00;;;;;;4937870;28;45570;-59
2022/03/18 04:30:16;;;;;;;5.70;4.80;;;18.10;50.00;;;;;;4953218;28;45331;-60
2022/03/18 04:32:41;;;;;;;6.57;5.28;;;18.10;50.00;;;;;;4944804;28;45396;-58
2022/03/18 04:35:07;;;;;;;5.82;5.18;;;18.10;50.00;;;;;;4949516;28;45495;-60
2022/03/18 04:37:33;;;;;;;5.07;4.57;;;18.10;50.10;;;;;;4976559;28;45398;-60
2022/03/18 04:39:59;;;;;;;5.18;4.68;;;18.10;50.10;;;;;;4947488;28;45438;-59
2022/03/18 04:42:25;;;;;;;6.10;5.15;;;18.10;50.10;;;;;;4955415;28;45478;-59
2022/03/18 04:44:51;;;;;;;4.70;4.25;;;18.10;50.10;;;;;;4951597;28;44957;-58
2022/03/18 04:47:16;;;;;;;4.85;4.38;;;18.10;50.10;;;;;;4950720;28;45512;-59
2022/03/18 04:49:42;;;;;;;5.00;3.95;;;18.10;50.10;;;;;;4948419;28;45212;-56
2022/03/18 04:52:07;;;;;;;5.47;4.90;;;18.10;50.10;;;;;;4947911;28;45020;-59
2022/03/18 04:54:33;;;;;;;5.45;4.72;;;18.10;50.10;;;;;;4944841;28;45489;-60
2022/03/18 04:59:43;;;;;;;5.40;4.68;;;18.00;50.10;;;;;;4949257;28;45256;-58
2022/03/18 05:02:12;;;;;;;6.43;5.38;;;18.00;50.10;;;;;;4941766;28;44832;-61
2022/03/18 05:04:38;;;;;;;4.85;4.38;;;18.00;50.10;;;;;;4942109;28;45630;-58
2022/03/18 05:07:04;;;;;;;5.03;4.55;;;18.00;50.10;;;;;;4958650;28;44909;-58
2022/03/18 05:09:30;;;;;;;5.47;4.75;;;18.00;50.10;;;;;;4958182;28;45764;-59
2022/03/18 05:11:55;;;;;;;6.28;5.25;;;18.00;50.20;;;;;;4956353;28;45076;-57
2022/03/18 05:14:21;;;;;;;5.55;4.93;;;18.00;50.20;;;;;;4952582;28;45796;-58
2022/03/18 05:16:47;;;;;;;5.50;4.60;;;18.00;50.20;;;;;;4928031;28;44982;-58
2022/03/18 05:19:12;;;;;;;5.45;4.75;;;18.00;50.10;;;;;;4950475;28;45427;-58
2022/03/18 05:21:39;;;;;;;5.68;5.07;;;18.00;50.10;;;;;;4950004;28;45495;-60
2022/03/18 05:24:06;;;;;;;5.30;4.65;;;17.90;50.10;;;;;;4944098;28;45918;-58
2022/03/18 05:26:32;;;;;;;5.05;4.45;;;18.00;50.20;;;;;;4950392;28;45224;-58
2022/03/18 05:28:58;;;;;;;5.65;4.97;;;17.90;50.10;;;;;;4945730;28;45413;-57
2022/03/18 05:31:25;;;;;;;5.93;4.88;;;17.90;50.10;;;;;;4948523;28;45681;-59
2022/03/18 05:33:51;;;;;;;5.10;4.60;;;17.90;50.10;;;;;;4930283;28;46138;-59
2022/03/18 05:36:17;;;;;;;5.43;4.47;;;17.90;50.20;;;;;;4951944;28;45153;-57
2022/03/18 05:38:42;;;;;;;5.43;4.57;;;17.90;50.10;;;;;;4951514;28;45450;-59
2022/03/18 05:41:09;;;;;;;4.93;4.43;;;17.90;50.20;;;;;;4951402;28;45353;-59
2022/03/18 05:43:34;;;;;;;5.68;5.07;;;17.90;50.20;;;;;;4949873;28;45251;-60
2022/03/18 05:46:00;;;;;;;5.20;4.70;;;17.90;50.10;;;;;;4968888;28;45766;-58
2022/03/18 05:48:25;;;;;;;5.32;4.82;;;17.90;50.20;;;;;;4958189;28;45277;-57
2022/03/18 05:50:51;;;;;;;4.88;4.38;;;17.90;50.20;;;;;;4950312;28;45082;-59
2022/03/18 05:53:17;;;;;;;4.85;4.35;;;17.90;50.20;;;;;;4942502;28;46161;-59
2022/03/18 05:58:27;;;;;;;4.97;4.45;;;17.80;50.20;;;;;;4946233;28;45024;-60
2022/03/18 06:00:53;;;;;;;5.25;4.75;;;17.90;50.20;;;;;;4920577;28;45153;-59
2022/03/18 06:03:19;;;;;;;5.53;5.00;;;17.80;50.20;;;;;;4950939;28;45599;-59
2022/03/18 06:05:45;;;;;;;6.15;4.70;;;17.90;50.20;;;;;;4959030;28;44796;-59
2022/03/18 06:13:39;;;;;;;5.80;4.90;;;17.80;50.30;;;;;;4944528;28;47218;-58
2022/03/18 06:16:05;;;;;;;7.03;4.90;;;17.80;50.30;;;;;;4940328;28;45444;-58
2022/03/18 06:18:30;;;;;;;5.10;4.45;;;17.80;50.20;;;;;;4948015;28;45307;-59
2022/03/18 06:20:56;;;;;;;5.75;4.72;;;17.80;50.20;;;;;;4956321;28;44867;-58
2022/03/18 06:23:22;;;;;;;5.18;4.68;;;17.80;50.30;;;;;;4936256;28;45688;-60
2022/03/18 06:25:47;;;;;;;5.15;4.65;;;17.80;50.30;;;;;;4941310;28;45615;-60
2022/03/18 06:28:13;;;;;;;4.90;4.40;;;17.80;50.30;;;;;;4941758;28;44825;-61
2022/03/18 06:30:38;;;;;;;5.22;4.63;;;17.80;50.30;;;;;;4937809;28;45027;-58
2022/03/18 06:33:04;;;;;;;5.03;4.50;;;17.80;50.30;;;;;;4949495;28;45629;-61
2022/03/18 06:35:30;;;;;;;5.85;5.05;;;17.80;50.20;;;;;;4945290;28;44941;-61
2022/03/18 06:37:55;;;;;;;5.80;4.97;;;17.80;50.30;;;;;;4961182;28;45258;-60
2022/03/18 06:40:21;;;;;;;5.10;4.28;;;17.70;50.20;;;;;;4950744;28;45665;-59
2022/03/18 06:42:46;;;;;;;6.80;4.97;;;17.70;50.20;;;;;;4950290;28;45532;-59
2022/03/18 06:45:12;;;;;;;5.32;4.55;;;17.70;50.20;;;;;;4939256;28;45344;-60
2022/03/18 06:47:38;;;;;;;6.75;4.90;;;17.70;50.20;;;;;;4950546;28;45603;-56
2022/03/18 06:50:04;;;;;;;5.10;4.60;;;17.70;50.20;;;;;;4958307;28;45455;-61
2022/03/18 06:52:29;;;;;;;5.78;4.80;;;17.70;50.20;;;;;;4954967;28;45578;-59
2022/03/18 06:54:55;;;;;;;6.55;5.47;;;17.70;50.20;;;;;;4962251;28;45439;-59
2022/03/18 06:57:21;;;;;;;5.53;5.03;;;17.70;50.20;;;;;;4940525;28;45440;-58
2022/03/18 06:59:46;;;;;;;5.90;5.05;;;17.70;50.30;;;;;;4947571;28;45104;-58
2022/03/18 07:02:13;;;;;;;5.32;4.80;;;17.70;50.80;;;;;;4946722;28;45350;-55
2022/03/18 07:04:39;;;;;;;6.97;4.90;;;17.80;50.10;;;;;;4953426;28;44951;-56
2022/03/18 07:07:06;;;;;;;5.28;4.38;;;17.90;50.00;;;;;;4953314;28;45532;-57
2022/03/18 07:09:32;;;;;;;4.18;3.78;;;18.00;49.80;;;;;;4949305;28;45317;-57
2022/03/18 07:11:57;;;;;;;5.07;4.20;;;18.10;49.70;;;;;;4952827;28;46862;-59
2022/03/18 07:14:23;;;;;;;4.60;4.00;;;18.30;49.60;;;;;;4963091;28;45261;-57
2022/03/18 07:19:33;;;;;;;4.55;4.03;;;18.50;49.30;;;;;;4943037;28;44956;-57
2022/03/18 07:21:58;;;;;;;4.43;3.83;;;18.60;49.10;;;;;;4944997;28;45534;-61
2022/03/18 07:24:24;;;;;;;4.75;4.00;;;18.70;49.00;;;;;;4947303;28;44716;-59
2022/03/18 07:26:49;;;;;;;4.20;3.80;;;18.80;48.90;;;;;;4948723;28;45212;-60
2022/03/18 07:29:15;;;;;;;4.18;3.78;;;18.90;48.80;;;;;;4939223;28;45538;-59
2022/03/18 07:31:41;;;;;;;4.28;3.65;;;19.00;48.70;;;;;;4946955;28;46208;-60
2022/03/18 07:34:06;;;;;;;4.00;3.60;;;19.10;48.60;;;;;;4957322;28;45223;-59
2022/03/18 07:36:32;;;;;;;4.22;3.42;;;19.20;48.50;;;;;;4946722;28;44987;-57
2022/03/18 07:38:57;;;;;;;4.00;3.60;;;19.30;48.40;;;;;;4945564;28;45267;-57
2022/03/18 07:41:23;;;;;;;3.72;3.17;;;19.40;48.30;;;;;;4947465;28;45461;-60
2022/03/18 07:43:49;;;;;;;4.13;3.72;;;19.50;48.20;;;;;;4943528;28;45085;-60
2022/03/18 07:46:14;;;;;;;4.50;3.63;;;19.60;48.20;;;;;;4946896;28;45442;-57
2022/03/18 07:48:43;;;;;;;4.00;3.60;;;19.70;48.00;;;;;;4942858;28;45107;-58
2022/03/18 07:51:08;;;;;;;4.20;3.78;;;19.80;48.00;;;;;;4937991;28;45564;-59
2022/03/18 07:53:34;;;;;;;4.63;3.60;;;19.90;47.90;;;;;;4961974;28;45214;-56
2022/03/18 07:56:00;;;;;;;5.38;3.25;;;20.00;47.80;;;;;;4951755;28;44897;-59
2022/03/18 07:58:25;;;;;;;5.03;3.05;;;20.10;47.70;;;;;;4942907;28;44919;-60
2022/03/18 08:00:51;;;;;;;3.42;3.13;;;20.20;47.60;;;;;;4949251;28;45511;-62
2022/03/18 08:03:16;;;;;;;3.42;3.10;;;20.30;47.60;;;;;;4955553;28;45435;-60
2022/03/18 08:05:42;;;;;;;3.65;3.33;;;20.30;47.40;;;;;;4945477;28;44935;-56
2022/03/18 08:08:08;;;;;;;3.63;3.30;;;20.40;47.40;;;;;;4943632;28;45221;-57
2022/03/18 08:10:33;;;;;;;3.72;3.20;;;20.50;47.20;;;;;;4950032;28;44979;-59
2022/03/18 08:12:59;;;;;;;3.20;2.90;;;20.60;47.20;;;;;;4962562;28;45216;-57
2022/03/18 08:15:24;;;;;;;3.78;3.00;;;20.70;47.10;;;;;;4961611;28;45187;-56
2022/03/18 08:17:52;;;;;;;3.13;2.83;;;20.90;47.00;;;;;;4952548;28;45078;-58
2022/03/18 08:20:17;;;;;;;3.10;2.80;;;20.90;46.90;;;;;;4956974;28;46227;-57
2022/03/18 08:22:43;;;;;;;2.92;2.63;;;21.00;46.80;;;;;;4928239;28;44924;-58
2022/03/18 08:25:09;;;;;;;3.60;3.17;;;21.10;46.70;;;;;;4943903;28;45600;-61
2022/03/18 08:27:35;;;;;;;3.17;2.85;;;21.20;46.70;;;;;;4947459;28;44993;-57
2022/03/18 08:30:01;;;;;;;3.13;2.83;;;21.30;46.50;;;;;;4943048;28;45190;-59
2022/03/18 08:32:27;;;;;;;3.33;2.47;;;21.40;46.50;;;;;;4952947;28;45395;-59
2022/03/18 08:34:54;;;;;;;3.22;2.85;;;21.50;46.40;;;;;;4957664;28;44974;-58
2022/03/18 08:37:56;;;;;;;2.60;2.40;;;21.50;46.30;;;;;;4964183;28;44664;-60
2022/03/18 08:40:06;;;;;;;2.75;2.40;;;21.60;46.20;;;;;;4939049;28;45995;-59
2022/03/18 08:42:32;;;;;;;2.90;2.60;;;21.70;46.10;;;;;;4954529;28;46554;-58
2022/03/18 08:44:58;;;;;;;2.90;2.60;;;21.80;46.10;;;;;;4942636;28;45271;-59
2022/03/18 08:47:26;;;;;;;3.00;2.70;;;21.90;46.00;;;;;;4946899;28;45598;-59
2022/03/18 08:49:52;;;;;;;2.95;2.63;;;22.00;45.80;;;;;;4957630;28;47333;-59
2022/03/18 08:52:18;;;;;;;2.58;2.38;;;22.10;45.80;;;;;;4953123;28;44820;-57
2022/03/18 08:54:43;;;;;;;2.60;2.40;;;22.20;45.70;;;;;;4954422;28;45534;-57
2022/03/18 08:57:09;;;;;;;2.47;2.20;;;22.30;45.60;;;;;;4955914;28;45295;-56
2022/03/18 08:59:35;;;;;;;2.67;2.47;;;22.40;45.50;;;;;;4948483;28;46693;-58
2022/03/18 09:02:00;;;;;;;2.78;2.25;;;22.40;45.40;;;;;;4948694;28;45457;-58
2022/03/18 09:04:26;;;;;;;2.95;2.63;;;22.50;45.40;;;;;;4958189;28;45246;-57
2022/03/18 09:06:51;;;;;;;2.40;2.20;;;22.60;45.30;;;;;;4954103;28;45069;-60
2022/03/18 09:09:17;;;;;;;3.03;2.40;;;22.60;45.20;;;;;;4946860;28;46639;-57
2022/03/18 09:11:43;;;;;;;2.60;2.40;;;22.70;45.20;;;;;;4943810;28;45250;-60
2022/03/18 09:14:10;;;;;;;2.75;2.25;;;22.80;45.10;;;;;;4947959;28;45199;-61
2022/03/18 09:16:38;;;;;;;3.72;2.53;;;22.80;45.00;;;;;;4949155;28;44800;-58
2022/03/18 09:19:04;;;;;;;4.95;2.28;;;22.90;45.00;;;;;;4952355;28;44977;-58
2022/03/18 09:21:29;;;;;;;2.45;2.25;;;23.00;44.90;;;;;;4949397;28;45058;-56
2022/03/18 09:23:55;;;;;;;2.63;2.25;;;23.00;44.80;;;;;;4955754;28;45504;-58
2022/03/18 09:26:21;;;;;;;2.30;2.10;;;23.10;44.80;;;;;;4946253;28;44782;-58
2022/03/18 09:28:46;;;;;;;2.20;2.00;;;23.20;44.70;;;;;;4956132;28;45509;-59
2022/03/18 09:31:12;;;;;;;2.53;2.17;;;23.20;44.70;;;;;;4949019;28;45344;-59
2022/03/18 09:33:41;;;;;;;2.45;2.17;;;23.30;44.60;;;;;;4956058;28;45262;-60
2022/03/18 09:36:07;;;;;;;4.07;1.80;;;23.30;44.50;;;;;;4949044;28;45475;-61
2022/03/18 09:38:33;;;;;;;3.40;2.22;;;23.40;44.40;;;;;;4952353;28;45914;-59
2022/03/18 09:40:58;;;;;;;2.15;1.95;;;23.40;44.40;;;;;;4952056;28;45588;-56
2022/03/18 09:43:24;;;;;;;2.42;2.17;;;23.50;44.40;;;;;;4952367;28;45283;-58
2022/03/18 09:45:49;;;;;;;2.00;1.85;;;23.50;44.30;;;;;;4955278;28;45245;-58
2022/03/18 09:48:15;;;;;;;2.20;1.98;;;23.60;44.30;;;;;;4924633;28;47476;-59
2022/03/18 09:50:42;;;;;;;2.08;1.88;;;23.60;44.20;;;;;;4978315;28;45500;-59
2022/03/18 09:53:08;;;;;;;2.50;2.30;;;23.70;44.20;;;;;;4949754;28;45260;-60
2022/03/18 09:55:35;;;;;;;2.47;2.25;;;23.70;44.10;;;;;;4946515;28;45131;-62
2022/03/18 09:58:00;;;;;;;2.10;1.90;;;23.80;44.10;;;;;;4952120;28;46041;-55
2022/03/18 10:00:26;;;;;;;2.20;2.00;;;23.80;44.00;;;;;;4947714;28;45444;-56
2022/03/18 10:03:11;;;;;;;2.75;2.55;;;23.90;44.00;;;;;;4949768;28;45521;-57
2022/03/18 10:05:59;;;;;;;4.13;2.13;;;23.90;43.60;;;;;;4949695;28;45538;-54
2022/03/18 10:08:25;;;;;;;2.30;2.10;;;24.00;44.10;;;;;;4945393;28;46008;-59
2022/03/18 10:10:51;;;;;;;2.55;2.08;;;24.00;43.90;;;;;;4940347;28;45550;-56
2022/03/18 10:13:17;;;;;;;2.50;2.20;;;24.00;43.90;;;;;;4946796;28;45484;-55
2022/03/18 10:15:46;;;;;;;2.55;2.10;;;24.10;43.80;;;;;;4938428;28;44830;-56
2022/03/18 10:18:13;;;;;;;2.10;1.90;;;24.10;43.60;;;;;;4942419;28;46347;-56
2022/03/18 10:20:40;;;;;;;2.35;2.15;;;24.10;43.80;;;;;;4941801;28;45241;-57
2022/03/18 10:23:15;;;;;;;2.50;2.10;;;24.10;43.70;;;;;;4940771;28;44897;-57
2022/03/18 10:25:56;;;;;;;2.10;1.90;;;24.20;43.40;;;;;;4947739;28;45079;-58
2022/03/18 10:28:37;;;;;;;2.20;2.00;;;24.20;43.20;;;;;;4951677;28;47017;-57
2022/03/18 10:31:15;;;;;;;3.28;1.90;;;24.30;43.40;;;;;;4945349;28;45171;-58
2022/03/18 10:39:36;;;;;;;1.85;1.70;;;24.40;43.50;;;;;;4952771;28;47095;-57
2022/03/18 10:42:20;;;;;;;2.30;2.10;;;24.40;43.40;;;;;;4936275;28;44681;-57
2022/03/18 10:44:52;;;;;;;2.72;1.95;;;24.40;44.00;;;;;;4940528;28;45362;-58
2022/03/18 10:47:33;;;;;;;2.40;2.20;;;24.40;43.40;;;;;;4947730;28;44618;-56
2022/03/18 10:50:11;;;;;;;2.00;1.85;;;24.50;43.20;;;;;;4946243;28;46488;-56
2022/03/18 10:52:59;;;;;;;2.22;2.03;;;24.60;43.10;;;;;;4949125;28;45437;-57
2022/03/18 10:55:30;;;;;;;2.00;1.80;;;24.50;43.20;;;;;;4946448;28;45658;-57
2022/03/18 10:58:08;;;;;;;2.15;1.95;;;24.60;43.10;;;;;;4948250;28;44976;-57
2022/03/18 11:00:37;;;;;;;2.08;1.80;;;24.60;43.20;;;;;;4939832;28;45940;-58
2022/03/18 11:03:03;;;;;;;3.05;2.13;;;24.60;43.20;;;;;;4951809;28;46391;-57
2022/03/18 11:05:38;;;;;;;2.88;1.92;;;24.60;43.20;;;;;;4945116;28;45886;-58
2022/03/18 11:08:05;;;;;;;3.47;2.20;;;24.70;43.10;;;;;;4941284;28;45033;-57
2022/03/18 11:13:17;;;;;;;2.30;1.95;;;24.70;43.20;;;;;;4945329;28;45120;-56
2022/03/18 11:15:44;;;;;;;2.05;1.80;;;24.70;43.10;;;;;;4962237;28;45572;-58
2022/03/18 11:18:13;;;;;;;1.92;1.83;;;24.70;43.10;;;;;;4939224;28;45443;-59
2022/03/18 11:20:43;;;;;;;2.60;2.00;;;24.80;43.00;;;;;;4950463;28;46466;-59
2022/03/18 11:23:13;;;;;;;2.20;2.00;;;24.80;43.00;;;;;;4946799;28;45021;-57
2022/03/18 11:25:39;;;;;;;1.80;1.63;;;24.80;42.90;;;;;;4949266;28;45207;-58
2022/03/18 11:28:05;;;;;;;2.05;1.92;;;24.80;43.00;;;;;;4936191;28;45552;-58
2022/03/18 11:30:38;;;;;;;1.98;1.80;;;24.80;42.90;;;;;;4942568;28;45933;-59
2022/03/18 11:33:06;;;;;;;;;;;24.90;42.90;;;;;;4955718;28;45134;-57
2022/03/18 11:35:50;;;;;;;1.90;1.70;;;24.90;42.50;;;;;;4944604;28;45510;-57
2022/03/18 11:38:15;;;;;;;1.77;1.67;;;24.90;42.50;;;;;;4949151;28;45642;-56
2022/03/18 11:40:54;;;;;;;1.90;1.80;;;24.90;42.90;;;;;;4946921;28;47260;-61
2022/03/18 11:43:35;;;;;;;3.47;2.25;;;24.90;42.70;;;;;;4938634;28;45390;-58
2022/03/18 11:46:12;;;;;;;2.20;2.00;;;25.00;42.60;;;;;;4949934;28;45579;-58
2022/03/18 11:48:40;;;;;;;2.55;1.77;;;25.00;42.50;;;;;;4945271;28;45482;-53
2022/03/18 11:51:29;;;;;;;2.90;2.03;;;25.00;42.80;;;;;;4951396;28;46314;-59
2022/03/18 11:53:55;;;;;;;2.58;2.05;;;25.00;42.50;;;;;;4945998;28;45377;-55
2022/03/18 11:56:23;;;;;;;2.20;1.77;;;25.00;42.90;;;;;;4937355;28;45417;-58
2022/03/18 11:58:48;;;;;;;2.58;1.83;;;25.00;42.80;;;;;;4958259;28;45501;-58
2022/03/18 12:01:42;;;;;;;1.90;1.70;;;25.10;42.80;;;;;;4937910;28;46313;-56
2022/03/18 12:04:08;;;;;;;2.13;1.92;;;25.10;42.50;;;;;;4975736;28;45041;-58
2022/03/18 12:06:39;;;;;;;2.58;1.95;;;25.10;42.80;;;;;;4948878;28;44934;-57
2022/03/18 12:09:05;;;;;;;3.58;1.90;;;25.10;42.80;;;;;;4955905;28;44879;-57
2022/03/18 12:11:32;;;;;;;3.50;1.80;;;25.10;42.70;;;;;;4949658;28;45569;-56
2022/03/18 12:13:59;;;;;;;2.40;1.95;;;25.10;42.70;;;;;;4956741;28;44951;-55
2022/03/18 12:16:24;;;;;;;2.60;2.30;;;25.10;42.60;;;;;;4953106;28;44741;-58
2022/03/18 12:18:55;;;;;;;2.10;1.90;;;25.20;42.70;;;;;;4951554;28;45178;-58
2022/03/18 12:21:34;;;;;;;2.25;2.05;;;25.10;42.60;;;;;;4953014;28;46298;-68
2022/03/18 12:24:11;;;;;;;2.00;1.83;;;25.20;42.40;;;;;;4950831;28;45008;-67
2022/03/18 12:26:37;;;;;;;2.40;2.20;;;25.10;42.40;;;;;;4957914;28;45423;-65
2022/03/18 12:29:03;;;;;;;3.15;2.00;;;25.20;42.70;;;;;;4958438;28;45051;-66
2022/03/18 12:31:28;;;;;;;2.33;2.00;;;25.10;42.60;;;;;;4954552;28;45199;-66
2022/03/18 12:33:58;;;;;;;4.28;2.13;;;25.10;42.70;;;;;;4958480;28;45273;-67
2022/03/18 12:36:25;;;;;;;2.20;1.90;;;25.10;42.60;;;;;;4951696;28;44766;-66
2022/03/18 12:39:09;;;;;;;2.30;2.10;;;25.10;42.70;;;;;;4956281;28;45487;-67
2022/03/18 12:41:35;;;;;;;2.30;2.10;;;25.10;42.50;;;;;;4960547;28;44980;-67
2022/03/18 12:44:00;;;;;;;3.00;2.38;;;25.10;42.70;;;;;;4956501;28;45060;-68
2022/03/18 12:46:27;;;;;;;1.70;1.60;;;25.10;42.70;;;;;;4959383;28;45247;-66
2022/03/18 12:48:53;;;;;;;2.15;1.88;;;25.10;42.80;;;;;;4949597;28;45455;-70
2022/03/18 12:51:19;;;;;;;4.85;1.70;;;25.10;42.80;;;;;;4964871;28;45736;-68
2022/03/18 12:53:46;;;;;;;1.90;1.77;;;25.10;42.80;;;;;;4953371;28;45095;-65
2022/03/18 12:56:16;;;;;;;1.85;1.70;;;25.10;42.80;;;;;;4963131;28;44622;-65
2022/03/18 12:58:44;;;;;;;2.30;1.83;;;25.10;42.80;;;;;;4961688;28;45440;-67
2022/03/18 13:01:11;;;;;;;4.60;1.60;;;25.10;42.80;;;;;;4929825;28;45990;-67
2022/03/18 13:03:37;;;;;;;2.20;2.00;;;25.10;42.80;;;;;;4947764;28;44858;-68
2022/03/18 13:06:07;;;;;;;1.80;1.63;;;25.10;42.80;;;;;;4953155;28;45024;-68
2022/03/18 13:08:34;;;;;;;2.58;2.00;;;25.10;42.80;;;;;;4952094;28;46116;-66
2022/03/18 13:11:04;;;;;;;2.70;1.88;;;25.10;42.90;;;;;;4949789;28;45532;-68
2022/03/18 13:13:29;;;;;;;2.33;2.05;;;25.10;42.90;;;;;;4955911;28;45220;-69
2022/03/18 13:16:04;;;;;;;1.88;1.70;;;25.10;42.90;;;;;;4944920;28;45289;-69
2022/03/18 13:18:35;;;;;;;2.17;1.88;;;25.10;42.90;;;;;;4952850;28;45528;-71
2022/03/18 13:21:08;;;;;;;1.77;1.67;;;25.10;42.90;;;;;;4953685;28;45969;-67
2022/03/18 13:23:34;;;;;;;2.58;2.13;;;25.10;42.80;;;;;;4946054;28;45159;-67
2022/03/18 13:26:00;;;;;;;2.92;2.08;;;25.10;42.90;;;;;;4951534;28;45690;-67
2022/03/18 13:28:28;;;;;;;2.60;1.92;;;25.10;42.90;;;;;;4949134;28;45242;-72
2022/03/18 13:33:42;;;;;;;2.58;1.75;;;25.10;42.90;;;;;;4952979;28;45471;-71
2022/03/18 13:36:22;;;;;;;2.83;1.75;;;25.10;42.90;;;;;;4947602;28;45610;-69
2022/03/18 13:38:47;;;;;;;2.25;1.88;;;25.10;42.80;;;;;;4955776;28;45178;-71
2022/03/18 13:41:14;;;;;;;1.95;1.77;;;25.10;43.00;;;;;;4982668;28;45360;-70
2022/03/18 13:43:40;;;;;;;2.10;1.90;;;25.10;43.00;;;;;;4943629;28;45963;-67
2022/03/18 13:46:19;;;;;;;1.80;1.67;;;25.10;43.00;;;;;;4946132;28;44720;-67
2022/03/18 13:48:47;;;;;;;1.73;1.63;;;25.10;42.90;;;;;;4950177;28;45509;-67
2022/03/18 13:51:35;;;;;;;1.98;1.77;;;25.10;43.00;;;;;;4949767;28;45597;-65
2022/03/18 13:54:08;;;;;;;4.00;1.80;;;25.20;43.00;;;;;;4950053;28;45347;-66
2022/03/18 13:56:35;;;;;;;2.10;1.58;;;25.10;43.00;;;;;;4945006;28;45188;-70
2022/03/18 13:59:17;;;;;;;1.88;1.77;;;25.10;43.10;;;;;;4959909;28;45382;-67
2022/03/18 14:02:01;;;;;;;2.08;1.88;;;25.20;43.00;;;;;;4949689;28;45294;-69
2022/03/18 14:04:45;;;;;;;2.03;1.83;;;25.20;43.00;;;;;;4953022;28;45441;-68
2022/03/18 14:07:12;;;;;;;2.17;1.88;;;25.10;43.00;;;;;;4946881;28;45137;-68
2022/03/18 14:09:39;;;;;;;2.05;1.85;;;25.20;43.20;;;;;;4954695;28;45263;-67
2022/03/18 14:12:09;;;;;;;2.03;1.75;;;25.10;43.10;;;;;;4945116;28;45542;-66
2022/03/18 14:14:36;;;;;;;2.13;1.92;;;25.10;43.10;;;;;;4940059;28;45270;-65
2022/03/18 14:17:16;;;;;;;2.30;2.10;;;25.10;43.10;;;;;;4947535;28;45595;-67
2022/03/18 14:19:56;;;;;;;2.05;1.90;;;25.10;43.00;;;;;;4948680;28;45508;-70
2022/03/18 14:22:31;;;;;;;2.20;2.00;;;25.10;43.10;;;;;;4950377;28;45592;-68
2022/03/18 14:24:56;;;;;;;2.10;1.90;;;25.20;43.10;;;;;;4947092;28;44994;-65
2022/03/18 14:27:22;;;;;;;2.65;2.45;;;25.10;43.20;;;;;;4962199;28;45344;-68
2022/03/18 14:29:48;;;;;;;2.53;2.00;;;25.20;43.60;;;;;;4938674;28;45354;-68
2022/03/18 14:32:13;;;;;;;2.30;2.10;;;25.20;43.20;;;;;;4943049;28;47047;-67
2022/03/18 14:34:39;;;;;;;2.10;1.90;;;25.20;43.20;;;;;;4956199;28;45511;-64
2022/03/18 14:37:04;;;;;;;2.30;2.10;;;25.20;43.20;;;;;;4945490;28;45258;-67
2022/03/18 14:39:30;;;;;;;3.67;1.70;;;25.20;43.30;;;;;;4939052;28;45398;-66
2022/03/18 14:41:55;;;;;;;2.00;1.80;;;25.20;43.20;;;;;;4940970;28;46046;-69
2022/03/18 14:44:21;;;;;;;2.95;1.92;;;25.20;43.30;;;;;;4947334;28;45394;-66
2022/03/18 14:46:47;;;;;;;2.38;2.17;;;25.20;43.30;;;;;;4956287;28;45320;-67
2022/03/18 14:49:12;;;;;;;2.95;2.28;;;25.20;43.30;;;;;;4952533;28;46904;-65
2022/03/18 14:51:38;;;;;;;1.95;1.80;;;25.20;43.30;;;;;;4973645;28;45941;-65
2022/03/18 14:54:03;;;;;;;2.55;2.35;;;25.20;43.30;;;;;;4942486;28;45184;-65
2022/03/18 14:56:29;;;;;;;1.85;1.70;;;25.20;43.30;;;;;;4957482;28;45288;-66
2022/03/18 14:58:55;;;;;;;2.08;1.92;;;25.20;43.30;;;;;;4942402;28;44963;-61
2022/03/18 15:01:21;;;;;;;2.30;2.10;;;25.20;43.40;;;;;;4949802;28;46007;-70
2022/03/18 15:03:46;;;;;;;2.20;2.00;;;25.20;43.30;;;;;;4954891;28;45336;-64
2022/03/18 15:06:12;;;;;;;1.70;1.60;;;25.20;43.30;;;;;;4950666;28;44977;-65
2022/03/18 15:08:38;;;;;;;2.00;1.77;;;25.20;43.30;;;;;;4948343;28;45069;-69
2022/03/18 15:11:03;;;;;;;2.38;2.10;;;25.20;43.30;;;;;;4946940;28;45545;-67
2022/03/18 15:13:29;;;;;;;2.35;2.15;;;25.20;43.30;;;;;;4942175;28;45581;-67
2022/03/18 15:15:55;;;;;;;3.53;1.90;;;25.20;43.40;;;;;;4926788;28;45332;-65
2022/03/18 15:18:20;;;;;;;1.98;1.85;;;25.20;43.40;;;;;;4946900;28;45303;-69
2022/03/18 15:20:46;;;;;;;2.38;2.17;;;25.20;43.40;;;;;;4953229;28;45738;-68
2022/03/18 15:23:13;;;;;;;2.40;2.20;;;25.20;43.40;;;;;;4960850;28;45525;-66
2022/03/18 15:25:38;;;;;;;2.20;2.00;;;25.20;43.40;;;;;;4956038;28;44919;-67
2022/03/18 15:28:07;;;;;;;2.40;2.20;;;25.20;43.40;;;;;;4943499;28;45313;-68
2022/03/18 15:30:33;;;;;;;2.30;2.10;;;25.20;43.40;;;;;;4944167;28;45984;-70
2022/03/18 15:32:59;;;;;;;2.30;2.10;;;25.20;43.40;;;;;;4963030;28;45678;-67
2022/03/18 15:35:24;;;;;;;2.58;2.38;;;25.20;43.40;;;;;;4950068;28;45564;-68
2022/03/18 15:37:50;;;;;;;2.30;2.10;;;25.20;43.40;;;;;;4943809;28;45493;-71
2022/03/18 15:40:16;;;;;;;2.33;2.10;;;25.30;43.50;;;;;;4944276;28;45976;-70
2022/03/18 15:42:43;;;;;;;2.40;2.13;;;25.20;43.50;;;;;;4950396;28;45045;-68
2022/03/18 15:45:09;;;;;;;2.25;2.05;;;25.20;43.50;;;;;;4948828;28;45623;-67
2022/03/18 15:47:35;;;;;;;1.95;1.77;;;25.20;43.50;;;;;;4951139;28;45774;-66
2022/03/18 15:50:06;;;;;;;2.00;1.80;;;25.20;43.50;;;;;;4952182;28;47487;-70
2022/03/18 15:52:33;;;;;;;2.42;2.22;;;25.20;43.50;;;;;;4974315;28;45441;-69
2022/03/18 15:54:59;;;;;;;4.50;2.10;;;25.30;43.50;;;;;;4953180;28;45384;-67
2022/03/18 15:57:25;;;;;;;2.55;2.30;;;25.20;43.50;;;;;;4949015;28;45474;-56
2022/03/18 15:59:51;;;;;;;2.75;2.22;;;25.20;43.60;;;;;;4955947;28;46622;-58
2022/03/18 16:02:17;;;;;;;2.40;2.10;;;25.30;43.60;;;;;;4907677;28;1096897;-59
2022/03/18 16:04:43;;;;;;;2.67;1.98;;;25.30;43.60;;;;;;4955040;28;45331;-59
2022/03/18 16:07:09;;;;;;;2.45;2.00;;;25.30;43.60;;;;;;4956889;28;45111;-58
2022/03/18 16:09:34;;;;;;;2.00;1.80;;;25.30;43.60;;;;;;4947317;28;45531;-58
2022/03/18 16:12:04;;;;;;;2.53;2.33;;;25.30;43.60;;;;;;4944033;28;45286;-60
2022/03/18 16:14:30;;;;;;;2.33;2.13;;;25.20;43.60;;;;;;4954863;28;45414;-60
2022/03/18 16:16:56;;;;;;;2.60;2.28;;;25.10;43.70;;;;;;4949707;28;45422;-57
2022/03/18 16:19:22;;;;;;;1.83;1.73;;;25.10;43.70;;;;;;4955411;28;45734;-59
2022/03/18 16:21:47;;;;;;;2.15;1.85;;;25.10;43.80;;;;;;4955520;28;45328;-59
2022/03/18 16:24:13;;;;;;;2.60;2.40;;;25.00;43.90;;;;;;4952903;28;45320;-60
2022/03/18 16:26:44;;;;;;;2.42;2.22;;;24.90;44.00;;;;;;4949139;28;45364;-60
2022/03/18 16:29:10;;;;;;;2.70;2.40;;;24.90;44.00;;;;;;4947909;28;45106;-60
2022/03/18 16:31:37;;;;;;;2.25;2.05;;;24.90;44.10;;;;;;4950661;28;45482;-59
2022/03/18 16:34:03;;;;;;;2.53;1.95;;;24.80;44.10;;;;;;4951333;28;45536;-60
2022/03/18 16:36:28;;;;;;;3.10;2.20;;;24.70;44.20;;;;;;4956112;28;45542;-60
2022/03/18 16:38:54;;;;;;;3.10;2.60;;;24.70;44.40;;;;;;4946378;28;46529;-59
2022/03/18 16:41:19;;;;;;;3.28;2.42;;;24.60;44.40;;;;;;4953850;28;45026;-57
2022/03/18 16:43:45;;;;;;;2.47;2.28;;;24.50;44.40;;;;;;4950642;28;45294;-58
2022/03/18 16:51:39;;;;;;;3.10;2.80;;;24.40;44.60;;;;;;4951202;28;45136;-57
2022/03/18 16:54:04;;;;;;;4.10;2.70;;;24.30;44.60;;;;;;4953132;28;44882;-55
2022/03/18 16:56:30;;;;;;;3.42;2.95;;;24.30;44.60;;;;;;4947800;28;46226;-56
2022/03/18 16:58:56;;;;;;;2.83;2.60;;;24.20;44.60;;;;;;4953967;28;46391;-57
2022/03/18 17:01:45;;;;;;;3.00;2.70;;;24.20;44.70;;;;;;4953507;28;45657;-58
2022/03/18 17:04:09;;;;;;;3.00;2.70;;;24.20;44.80;;;;;;4960790;28;45079;-57
2022/03/18 17:06:35;;;;;;;3.17;2.80;;;24.10;44.80;;;;;;4953292;28;45687;-57
2022/03/18 17:09:00;;;;;;;3.72;2.90;;;24.10;44.90;;;;;;4956517;28;45911;-60
2022/03/18 17:11:26;;;;;;;3.75;2.75;;;24.10;44.90;;;;;;4958610;28;45839;-58
2022/03/18 17:13:53;;;;;;;3.28;2.97;;;24.00;44.90;;;;;;4956695;28;45638;-55
2022/03/18 17:16:18;;;;;;;3.17;2.88;;;24.00;44.90;;;;;;4950273;28;44875;-58
2022/03/18 17:18:47;;;;;;;3.10;2.80;;;24.00;45.00;;;;;;4952601;28;47089;-58
2022/03/18 17:21:14;;;;;;;2.92;2.63;;;23.90;45.00;;;;;;4954737;28;45510;-57